Terminal Aerodrome Forecast
Issued by NWS

Home | Current Version | Previous Version | Text Only | Print | Product List | Glossary On
Versions: 1 2 3 4 5 6 7 8 9 10 11 12 13 14 15 16 17 18 19 20 21 22 23 24 25 26
000
FTPQ31 PGUM 191100
TAFPQ
TAF

PTYA 191124Z 1912/2012 36007KT P6SM -SHRA SCT016CB OVC110
      TEMPO 1912/1916 34012G22KT 5SM TSRA BKN015CB OVC110
     FM192000 15008KT P6SM VCSH SCT016CB BKN110=

USA.gov is the U.S. government's official web portal to all federal, state and local government web resources and services.